Klundert, Netherlands
Current Conditions -  °F | °C
As of 9:20 AM on Tuesday 27 Jan 2015 (Local Time) from EHWO Reporting Station
Broken Clouds Broken Clouds  
Wind Chill: 33°   Ceiling: 2500
Heat Index: 39°   Visibility: 6mi
Dew Point: 37°   Wind: 9mph
Humidity: 93%   Direction: 270°W
Pressure: 30.24"   Gusts: NA
Location:  51.66°N, 4.53°E
Report Text: EHWO 270820Z AUTO 27008KT 9999 BKN025 04/03 Q1024 BLU 28008KT 9999 FEW016 SCT020 BKN200
Loading
Personal Weather Stations






























Interactive Weather Map New forecast layout! Learn more

10-Day Weather Forecast

Advertisements
Track Severe Weather on mobile